Delta Billie — WDE8059 — position and weather

sailwx.info

Track history (hours):
 
Tides and Currents Weather Stations Pressure Air Temp Water Temp Dewpoint Dewpoint Depression Visibility Wind Speed Wind Dir Waves Ship Positions

Delta Billie

Owner: Baydelta Maritime, San Francicso, CA. More information available from US FCC via Universal Licensing System and Coast Guard Vessel Documentation Center.

Last reported at 2015-Mar-26 23:33 UTC. Time now 2015-Mar-26 23:44 UTC.
Position N 37°46' W 122°21'.

Length 30 m; draft 5.5 m.

Type: Towing. MMSI: 367401030.

Date/timePositionNaut miles runAvg speedWind from/ knotsBaromVisibWave heightAir tempDewpointWater temp
2015-Mar-26 23:33N 37°46' W 122°21'3 3.2
2015-Mar-26 22:33N 37°48' W 122°24'0 0.0
2015-Mar-26 21:33N 37°48' W 122°24'5 5.2
2015-Mar-26 20:33N 37°48' W 122°30'1 0.6
2015-Mar-26 19:33N 37°48' W 122°30'5 5.3
2015-Mar-26 18:33N 37°48' W 122°23'4 4.1
2015-Mar-26 17:33N 37°45' W 122°20'0 0.2
2015-Mar-26 16:33N 37°45' W 122°20'0 0.1
2015-Mar-26 15:33N 37°45' W 122°19'0 0.0
2015-Mar-26 14:33N 37°45' W 122°19'0 0.0
2015-Mar-26 13:33N 37°45' W 122°19'0 0.1
2015-Mar-26 12:33N 37°45' W 122°19'0 0.1
2015-Mar-26 11:33N 37°45' W 122°19'0 0.0
2015-Mar-26 10:32N 37°45' W 122°19'0 0.0
2015-Mar-26 09:33N 37°45' W 122°19'0 0.0
2015-Mar-26 08:33N 37°45' W 122°19'0 0.0
2015-Mar-26 07:33N 37°45' W 122°19'0 0.1
2015-Mar-26 06:33N 37°45' W 122°19'0 0.0
2015-Mar-26 05:33N 37°45' W 122°19'0 0.0
2015-Mar-26 04:33N 37°45' W 122°19'0 0.0
2015-Mar-26 03:33N 37°45' W 122°19'0 0.0
2015-Mar-26 02:33N 37°45' W 122°19'0 0.0
2015-Mar-26 01:33N 37°45' W 122°19'2 2.0
2015-Mar-26 00:33N 37°47' W 122°21'10 9.8
2015-Mar-25 23:33N 37°56' W 122°25'8 8.0
2015-Mar-25 22:33N 38°03' W 122°20'9 9.2
2015-Mar-25 21:33N 38°02' W 122°09'0 0.1
2015-Mar-25 17:03N 38°02' W 122°08'0 0.0
2015-Mar-25 16:31N 38°02' W 122°08'2 0.1
2015-Mar-25 00:09N 38°03' W 122°11'6 9.2
2015-Mar-24 23:31N 38°03' W 122°18'1010.6
2015-Mar-24 22:33N 37°56' W 122°27'9 9.4
2015-Mar-24 21:33N 37°47' W 122°22'3 2.8
2015-Mar-24 20:33N 37°45' W 122°19'0 0.0
2015-Mar-24 19:33N 37°45' W 122°19'0 0.0
2015-Mar-24 18:33N 37°45' W 122°19'0 0.1
2015-Mar-24 17:33N 37°45' W 122°19'0 0.0
2015-Mar-24 16:33N 37°45' W 122°20'0 0.0
2015-Mar-24 15:33N 37°45' W 122°20'0 0.0
2015-Mar-24 14:33N 37°45' W 122°20'0 0.0
2015-Mar-24 13:33N 37°45' W 122°20'5 4.5
2015-Mar-24 12:33N 37°48' W 122°24'0 0.0
2015-Mar-24 11:33N 37°48' W 122°24'0 0.0
2015-Mar-24 10:33N 37°48' W 122°24'0 0.0
2015-Mar-24 09:33N 37°48' W 122°24'0 0.0
2015-Mar-24 08:33N 37°48' W 122°24'0 0.0
2015-Mar-24 07:33N 37°48' W 122°24'0 0.0
2015-Mar-24 06:33N 37°48' W 122°24'3 2.8
2015-Mar-24 05:33N 37°51' W 122°24'1010.1
2015-Mar-24 04:33N 38°01' W 122°23'10 2.0
2015-Mar-23 23:27N 38°03' W 122°11'10 8.5
2015-Mar-23 22:20N 38°02' W 122°23'810.7
2015-Mar-23 21:33N 37°54' W 122°26'6 6.2
2015-Mar-23 20:33N 37°49' W 122°30'2 2.3
2015-Mar-23 19:33N 37°50' W 122°28'2 2.3
2015-Mar-23 18:33N 37°49' W 122°31'0 0.4
2015-Mar-23 17:33N 37°49' W 122°31'6 5.6
2015-Mar-23 16:33N 37°52' W 122°25'8 7.6
2015-Mar-23 15:33N 37°60' W 122°25'8 7.5
2015-Mar-23 14:31N 38°03' W 122°16'5 0.6
2015-Mar-23 07:09N 38°03' W 122°11'9 9.7
2015-Mar-23 06:11N 38°01' W 122°23'610.3
2015-Mar-23 05:33N 37°55' W 122°25'1 0.6
2015-Mar-23 04:33N 37°56' W 122°25'0 0.0
2015-Mar-23 03:33N 37°56' W 122°25'2 2.3
2015-Mar-23 02:33N 37°58' W 122°26'1110.1
2015-Mar-23 01:26N 38°04' W 122°13'3 0.1
2015-Mar-22 04:33N 38°02' W 122°10'8 7.3
2015-Mar-22 03:29N 38°03' W 122°20'8 8.0
2015-Mar-22 02:33N 37°57' W 122°26'9 8.9
2015-Mar-22 01:33N 37°48' W 122°24'0 0.1
2015-Mar-22 00:33N 37°48' W 122°24'0 0.0
2015-Mar-21 23:33N 37°48' W 122°24'0 0.0
2015-Mar-21 22:33N 37°48' W 122°24'2 2.3
2015-Mar-21 21:33N 37°47' W 122°22'2 1.9
2015-Mar-21 20:33N 37°48' W 122°23'7 6.8
2015-Mar-21 19:33N 37°49' W 122°31'4 4.1
2015-Mar-21 18:33N 37°49' W 122°26'2 1.8
2015-Mar-21 17:33N 37°48' W 122°24'0 0.0
2015-Mar-21 16:33N 37°48' W 122°24'0 0.0
2015-Mar-21 15:33N 37°48' W 122°24'0 0.0
2015-Mar-21 14:33N 37°48' W 122°24'0 0.0
2015-Mar-21 13:33N 37°48' W 122°24'0 0.0
2015-Mar-21 12:33N 37°48' W 122°24'1010.1
2015-Mar-21 11:33N 37°58' W 122°26'11 9.9
2015-Mar-21 10:26N 38°04' W 122°14'1 0.5
2015-Mar-21 07:32N 38°04' W 122°15'4 3.8
2015-Mar-21 06:34N 38°03' W 122°11'2 0.7
2015-Mar-21 03:33N 38°02' W 122°08'0 0.0
2015-Mar-21 02:33N 38°02' W 122°08'0 0.0
2015-Mar-21 01:33N 38°02' W 122°08'0 0.0
2015-Mar-21 00:33N 38°02' W 122°08'0 0.0
2015-Mar-20 23:29N 38°02' W 122°08'0 0.0
2015-Mar-20 20:18N 38°02' W 122°08'0 0.0
2015-Mar-20 18:23N 38°02' W 122°08'0 0.0
2015-Mar-20 17:33N 38°02' W 122°08'0 0.0
2015-Mar-20 16:16N 38°02' W 122°08'0 0.0
2015-Mar-20 14:29N 38°02' W 122°08'0 0.0
2015-Mar-20 13:28N 38°02' W 122°08'0 0.0
2015-Mar-20 12:33N 38°02' W 122°08'1 0.6
2015-Mar-20 11:32N 38°02' W 122°09'1 0.5
2015-Mar-20 10:20N 38°02' W 122°08'0 0.1
2015-Mar-20 09:33N 38°02' W 122°08'0 0.0
2015-Mar-20 06:29N 38°02' W 122°08'0 0.0
2015-Mar-20 05:32N 38°02' W 122°08'5 5.2
2015-Mar-20 04:33N 38°04' W 122°14'0 0.3
2015-Mar-20 03:26N 38°03' W 122°15'5 5.5
2015-Mar-20 02:32N 38°02' W 122°09'0 0.2
2015-Mar-20 01:31N 38°02' W 122°09'7 6.7
2015-Mar-20 00:31N 38°03' W 122°17'9 8.8
2015-Mar-19 23:33N 37°58' W 122°26'9 9.1
2015-Mar-19 22:33N 37°49' W 122°24'1 1.2
2015-Mar-19 21:33N 37°48' W 122°24'0 0.0
2015-Mar-19 20:33N 37°48' W 122°24'0 0.0
2015-Mar-19 19:33N 37°48' W 122°24'0 0.0
2015-Mar-19 18:33N 37°48' W 122°24'6 5.8
2015-Mar-19 17:33N 37°49' W 122°31'0 0.2
2015-Mar-19 16:33N 37°49' W 122°31'1 1.3
2015-Mar-19 15:33N 37°49' W 122°30'4 4.1
2015-Mar-19 14:33N 37°51' W 122°25'6 5.6
2015-Mar-19 13:33N 37°56' W 122°27'8 7.7
2015-Mar-19 12:33N 38°02' W 122°21'7 6.7
2015-Mar-19 11:31N 38°04' W 122°12'4 3.4
2015-Mar-19 10:30N 38°02' W 122°08'2 1.4
2015-Mar-19 09:18N 38°03' W 122°06'2 2.3
2015-Mar-19 08:33N 38°02' W 122°08'0 0.0
2015-Mar-19 07:33N 38°02' W 122°08'0 0.0
2015-Mar-19 06:33N 38°02' W 122°08'0 0.0
2015-Mar-19 05:33N 38°02' W 122°08'0 0.0
2015-Mar-19 04:31N 38°02' W 122°08'0 0.5
2015-Mar-19 03:33N 38°02' W 122°08'0 0.2
2015-Mar-19 02:33N 38°02' W 122°08'7 7.3
2015-Mar-19 01:33N 38°03' W 122°17'9 8.5
2015-Mar-19 00:33N 37°58' W 122°26'8 7.7
2015-Mar-18 23:33N 37°51' W 122°25'5 4.6
2015-Mar-18 22:33N 37°49' W 122°31'1 1.1
2015-Mar-18 21:33N 37°49' W 122°30'5 4.5
2015-Mar-18 20:33N 37°48' W 122°24'0 0.0
2015-Mar-18 19:33N 37°48' W 122°24'0 0.0
2015-Mar-18 18:33N 37°48' W 122°24'0 0.0
2015-Mar-18 17:33N 37°48' W 122°24'4 4.3
2015-Mar-18 16:33N 37°52' W 122°25'3 3.2
2015-Mar-18 15:33N 37°56' W 122°25'0 0.0
2015-Mar-18 14:33N 37°56' W 122°25'0 0.2
2015-Mar-18 13:33N 37°55' W 122°25'2 2.3
2015-Mar-18 12:33N 37°55' W 122°22'1 0.6
2015-Mar-18 11:33N 37°55' W 122°22'1 1.1
2015-Mar-18 10:33N 37°54' W 122°22'6 6.2
2015-Mar-18 09:33N 37°48' W 122°24'0 0.0
2015-Mar-18 08:33N 37°48' W 122°24'0 0.0
2015-Mar-18 07:33N 37°48' W 122°24'0 0.0
2015-Mar-18 06:33N 37°48' W 122°24'0 0.0
2015-Mar-18 05:33N 37°48' W 122°24'0 0.0
2015-Mar-18 04:33N 37°48' W 122°24'0 0.0
2015-Mar-18 03:33N 37°48' W 122°24'0 0.0
2015-Mar-18 02:33N 37°48' W 122°24'4 4.2
2015-Mar-18 01:33N 37°48' W 122°19'1 1.4
2015-Mar-18 00:33N 37°48' W 122°17'5 4.5
2015-Mar-17 23:33N 37°48' W 122°23'1 1.1
2015-Mar-17 22:33N 37°48' W 122°24'0 0.0
2015-Mar-17 21:33N 37°48' W 122°24'0 0.0
2015-Mar-17 20:33N 37°48' W 122°24'0 0.0
2015-Mar-17 19:33N 37°48' W 122°24'0 0.0
2015-Mar-17 18:33N 37°48' W 122°24'0 0.0
2015-Mar-17 17:33N 37°48' W 122°24'0 0.0
2015-Mar-17 16:33N 37°48' W 122°24'0 0.0
2015-Mar-17 15:33N 37°48' W 122°24'4 3.9
2015-Mar-17 14:33N 37°45' W 122°21'8 8.1
2015-Mar-17 13:33N 37°49' W 122°30'1 1.3
2015-Mar-17 12:33N 37°49' W 122°29'4 3.9
2015-Mar-17 11:33N 37°48' W 122°24'0 0.0
2015-Mar-17 10:33N 37°48' W 122°24'0 0.0
2015-Mar-17 09:33N 37°48' W 122°24'0 0.0
2015-Mar-17 08:33N 37°48' W 122°24'0 0.0
2015-Mar-17 07:33N 37°48' W 122°24'0 0.0
2015-Mar-17 06:33N 37°48' W 122°24'0 0.0
2015-Mar-17 05:33N 37°48' W 122°24'0 0.0
2015-Mar-17 04:33N 37°48' W 122°24'0 0.0
2015-Mar-17 03:33N 37°48' W 122°24'0 0.0
2015-Mar-17 02:33N 37°48' W 122°24'0 0.0
2015-Mar-17 01:34N 37°48' W 122°24'3 3.4
2015-Mar-17 00:33N 37°49' W 122°20'  
Track history (hours):
 
Tides and Currents Weather Stations Pressure Air Temp Water Temp Dewpoint Dewpoint Depression Visibility Wind Speed Wind Dir Waves Ship Positions

Delta Billie

Owner: Baydelta Maritime, San Francicso, CA. More information available from US FCC via Universal Licensing System and Coast Guard Vessel Documentation Center.

Last reported at 2015-Mar-26 23:33 UTC. Time now 2015-Mar-26 23:44 UTC.
Position N 37°46' W 122°21'.

Length 30 m; draft 5.5 m.

Type: Towing. MMSI: 367401030.

Date/timePositionNaut miles runAvg speedWind from/ knotsBaromVisibWave heightAir tempDewpointWater temp
2015-Mar-26 23:33N 37°46' W 122°21'3 3.2
2015-Mar-26 22:33N 37°48' W 122°24'0 0.0
2015-Mar-26 21:33N 37°48' W 122°24'5 5.2
2015-Mar-26 20:33N 37°48' W 122°30'1 0.6
2015-Mar-26 19:33N 37°48' W 122°30'5 5.3
2015-Mar-26 18:33N 37°48' W 122°23'4 4.1
2015-Mar-26 17:33N 37°45' W 122°20'0 0.2
2015-Mar-26 16:33N 37°45' W 122°20'0 0.1
2015-Mar-26 15:33N 37°45' W 122°19'0 0.0
2015-Mar-26 14:33N 37°45' W 122°19'0 0.0
2015-Mar-26 13:33N 37°45' W 122°19'0 0.1
2015-Mar-26 12:33N 37°45' W 122°19'0 0.1
2015-Mar-26 11:33N 37°45' W 122°19'0 0.0
2015-Mar-26 10:32N 37°45' W 122°19'0 0.0
2015-Mar-26 09:33N 37°45' W 122°19'0 0.0
2015-Mar-26 08:33N 37°45' W 122°19'0 0.0
2015-Mar-26 07:33N 37°45' W 122°19'0 0.1
2015-Mar-26 06:33N 37°45' W 122°19'0 0.0
2015-Mar-26 05:33N 37°45' W 122°19'0 0.0
2015-Mar-26 04:33N 37°45' W 122°19'0 0.0
2015-Mar-26 03:33N 37°45' W 122°19'0 0.0
2015-Mar-26 02:33N 37°45' W 122°19'0 0.0
2015-Mar-26 01:33N 37°45' W 122°19'2 2.0
2015-Mar-26 00:33N 37°47' W 122°21'10 9.8
2015-Mar-25 23:33N 37°56' W 122°25'8 8.0
2015-Mar-25 22:33N 38°03' W 122°20'9 9.2
2015-Mar-25 21:33N 38°02' W 122°09'0 0.1
2015-Mar-25 17:03N 38°02' W 122°08'0 0.0
2015-Mar-25 16:31N 38°02' W 122°08'2 0.1
2015-Mar-25 00:09N 38°03' W 122°11'6 9.2
2015-Mar-24 23:31N 38°03' W 122°18'1010.6
2015-Mar-24 22:33N 37°56' W 122°27'9 9.4
2015-Mar-24 21:33N 37°47' W 122°22'3 2.8
2015-Mar-24 20:33N 37°45' W 122°19'0 0.0
2015-Mar-24 19:33N 37°45' W 122°19'0 0.0
2015-Mar-24 18:33N 37°45' W 122°19'0 0.1
2015-Mar-24 17:33N 37°45' W 122°19'0 0.0
2015-Mar-24 16:33N 37°45' W 122°20'0 0.0
2015-Mar-24 15:33N 37°45' W 122°20'0 0.0
2015-Mar-24 14:33N 37°45' W 122°20'0 0.0
2015-Mar-24 13:33N 37°45' W 122°20'5 4.5
2015-Mar-24 12:33N 37°48' W 122°24'0 0.0
2015-Mar-24 11:33N 37°48' W 122°24'0 0.0
2015-Mar-24 10:33N 37°48' W 122°24'0 0.0
2015-Mar-24 09:33N 37°48' W 122°24'0 0.0
2015-Mar-24 08:33N 37°48' W 122°24'0 0.0
2015-Mar-24 07:33N 37°48' W 122°24'0 0.0
2015-Mar-24 06:33N 37°48' W 122°24'3 2.8
2015-Mar-24 05:33N 37°51' W 122°24'1010.1
2015-Mar-24 04:33N 38°01' W 122°23'10 2.0
2015-Mar-23 23:27N 38°03' W 122°11'10 8.5
2015-Mar-23 22:20N 38°02' W 122°23'810.7
2015-Mar-23 21:33N 37°54' W 122°26'6 6.2
2015-Mar-23 20:33N 37°49' W 122°30'2 2.3
2015-Mar-23 19:33N 37°50' W 122°28'2 2.3
2015-Mar-23 18:33N 37°49' W 122°31'0 0.4
2015-Mar-23 17:33N 37°49' W 122°31'6 5.6
2015-Mar-23 16:33N 37°52' W 122°25'8 7.6
2015-Mar-23 15:33N 37°60' W 122°25'8 7.5
2015-Mar-23 14:31N 38°03' W 122°16'5 0.6
2015-Mar-23 07:09N 38°03' W 122°11'9 9.7
2015-Mar-23 06:11N 38°01' W 122°23'610.3
2015-Mar-23 05:33N 37°55' W 122°25'1 0.6
2015-Mar-23 04:33N 37°56' W 122°25'0 0.0
2015-Mar-23 03:33N 37°56' W 122°25'2 2.3
2015-Mar-23 02:33N 37°58' W 122°26'1110.1
2015-Mar-23 01:26N 38°04' W 122°13'3 0.1
2015-Mar-22 04:33N 38°02' W 122°10'8 7.3
2015-Mar-22 03:29N 38°03' W 122°20'8 8.0
2015-Mar-22 02:33N 37°57' W 122°26'9 8.9
2015-Mar-22 01:33N 37°48' W 122°24'0 0.1
2015-Mar-22 00:33N 37°48' W 122°24'0 0.0
2015-Mar-21 23:33N 37°48' W 122°24'0 0.0
2015-Mar-21 22:33N 37°48' W 122°24'2 2.3
2015-Mar-21 21:33N 37°47' W 122°22'2 1.9
2015-Mar-21 20:33N 37°48' W 122°23'7 6.8
2015-Mar-21 19:33N 37°49' W 122°31'4 4.1
2015-Mar-21 18:33N 37°49' W 122°26'2 1.8
2015-Mar-21 17:33N 37°48' W 122°24'0 0.0
2015-Mar-21 16:33N 37°48' W 122°24'0 0.0
2015-Mar-21 15:33N 37°48' W 122°24'0 0.0
2015-Mar-21 14:33N 37°48' W 122°24'0 0.0
2015-Mar-21 13:33N 37°48' W 122°24'0 0.0
2015-Mar-21 12:33N 37°48' W 122°24'1010.1
2015-Mar-21 11:33N 37°58' W 122°26'11 9.9
2015-Mar-21 10:26N 38°04' W 122°14'1 0.5
2015-Mar-21 07:32N 38°04' W 122°15'4 3.8
2015-Mar-21 06:34N 38°03' W 122°11'2 0.7
2015-Mar-21 03:33N 38°02' W 122°08'0 0.0
2015-Mar-21 02:33N 38°02' W 122°08'0 0.0
2015-Mar-21 01:33N 38°02' W 122°08'0 0.0
2015-Mar-21 00:33N 38°02' W 122°08'0 0.0
2015-Mar-20 23:29N 38°02' W 122°08'0 0.0
2015-Mar-20 20:18N 38°02' W 122°08'0 0.0
2015-Mar-20 18:23N 38°02' W 122°08'0 0.0
2015-Mar-20 17:33N 38°02' W 122°08'0 0.0
2015-Mar-20 16:16N 38°02' W 122°08'0 0.0
2015-Mar-20 14:29N 38°02' W 122°08'0 0.0
2015-Mar-20 13:28N 38°02' W 122°08'0 0.0
2015-Mar-20 12:33N 38°02' W 122°08'1 0.6
2015-Mar-20 11:32N 38°02' W 122°09'1 0.5
2015-Mar-20 10:20N 38°02' W 122°08'0 0.1
2015-Mar-20 09:33N 38°02' W 122°08'0 0.0
2015-Mar-20 06:29N 38°02' W 122°08'0 0.0
2015-Mar-20 05:32N 38°02' W 122°08'5 5.2
2015-Mar-20 04:33N 38°04' W 122°14'0 0.3
2015-Mar-20 03:26N 38°03' W 122°15'5 5.5
2015-Mar-20 02:32N 38°02' W 122°09'0 0.2
2015-Mar-20 01:31N 38°02' W 122°09'7 6.7
2015-Mar-20 00:31N 38°03' W 122°17'9 8.8
2015-Mar-19 23:33N 37°58' W 122°26'9 9.1
2015-Mar-19 22:33N 37°49' W 122°24'1 1.2
2015-Mar-19 21:33N 37°48' W 122°24'0 0.0
2015-Mar-19 20:33N 37°48' W 122°24'0 0.0
2015-Mar-19 19:33N 37°48' W 122°24'0 0.0
2015-Mar-19 18:33N 37°48' W 122°24'6 5.8
2015-Mar-19 17:33N 37°49' W 122°31'0 0.2
2015-Mar-19 16:33N 37°49' W 122°31'1 1.3
2015-Mar-19 15:33N 37°49' W 122°30'4 4.1
2015-Mar-19 14:33N 37°51' W 122°25'6 5.6
2015-Mar-19 13:33N 37°56' W 122°27'8 7.7
2015-Mar-19 12:33N 38°02' W 122°21'7 6.7
2015-Mar-19 11:31N 38°04' W 122°12'4 3.4
2015-Mar-19 10:30N 38°02' W 122°08'2 1.4
2015-Mar-19 09:18N 38°03' W 122°06'2 2.3
2015-Mar-19 08:33N 38°02' W 122°08'0 0.0
2015-Mar-19 07:33N 38°02' W 122°08'0 0.0
2015-Mar-19 06:33N 38°02' W 122°08'0 0.0
2015-Mar-19 05:33N 38°02' W 122°08'0 0.0
2015-Mar-19 04:31N 38°02' W 122°08'0 0.5
2015-Mar-19 03:33N 38°02' W 122°08'0 0.2
2015-Mar-19 02:33N 38°02' W 122°08'7 7.3
2015-Mar-19 01:33N 38°03' W 122°17'9 8.5
2015-Mar-19 00:33N 37°58' W 122°26'8 7.7
2015-Mar-18 23:33N 37°51' W 122°25'5 4.6
2015-Mar-18 22:33N 37°49' W 122°31'1 1.1
2015-Mar-18 21:33N 37°49' W 122°30'5 4.5
2015-Mar-18 20:33N 37°48' W 122°24'0 0.0
2015-Mar-18 19:33N 37°48' W 122°24'0 0.0
2015-Mar-18 18:33N 37°48' W 122°24'0 0.0
2015-Mar-18 17:33N 37°48' W 122°24'4 4.3
2015-Mar-18 16:33N 37°52' W 122°25'3 3.2
2015-Mar-18 15:33N 37°56' W 122°25'0 0.0
2015-Mar-18 14:33N 37°56' W 122°25'0 0.2
2015-Mar-18 13:33N 37°55' W 122°25'2 2.3
2015-Mar-18 12:33N 37°55' W 122°22'1 0.6
2015-Mar-18 11:33N 37°55' W 122°22'1 1.1
2015-Mar-18 10:33N 37°54' W 122°22'6 6.2
2015-Mar-18 09:33N 37°48' W 122°24'0 0.0
2015-Mar-18 08:33N 37°48' W 122°24'0 0.0
2015-Mar-18 07:33N 37°48' W 122°24'0 0.0
2015-Mar-18 06:33N 37°48' W 122°24'0 0.0
2015-Mar-18 05:33N 37°48' W 122°24'0 0.0
2015-Mar-18 04:33N 37°48' W 122°24'0 0.0
2015-Mar-18 03:33N 37°48' W 122°24'0 0.0
2015-Mar-18 02:33N 37°48' W 122°24'4 4.2
2015-Mar-18 01:33N 37°48' W 122°19'1 1.4
2015-Mar-18 00:33N 37°48' W 122°17'5 4.5
2015-Mar-17 23:33N 37°48' W 122°23'1 1.1
2015-Mar-17 22:33N 37°48' W 122°24'0 0.0
2015-Mar-17 21:33N 37°48' W 122°24'0 0.0
2015-Mar-17 20:33N 37°48' W 122°24'0 0.0
2015-Mar-17 19:33N 37°48' W 122°24'0 0.0
2015-Mar-17 18:33N 37°48' W 122°24'0 0.0
2015-Mar-17 17:33N 37°48' W 122°24'0 0.0
2015-Mar-17 16:33N 37°48' W 122°24'0 0.0
2015-Mar-17 15:33N 37°48' W 122°24'4 3.9
2015-Mar-17 14:33N 37°45' W 122°21'8 8.1
2015-Mar-17 13:33N 37°49' W 122°30'1 1.3
2015-Mar-17 12:33N 37°49' W 122°29'4 3.9
2015-Mar-17 11:33N 37°48' W 122°24'0 0.0
2015-Mar-17 10:33N 37°48' W 122°24'0 0.0
2015-Mar-17 09:33N 37°48' W 122°24'0 0.0
2015-Mar-17 08:33N 37°48' W 122°24'0 0.0
2015-Mar-17 07:33N 37°48' W 122°24'0 0.0
2015-Mar-17 06:33N 37°48' W 122°24'0 0.0
2015-Mar-17 05:33N 37°48' W 122°24'0 0.0
2015-Mar-17 04:33N 37°48' W 122°24'0 0.0
2015-Mar-17 03:33N 37°48' W 122°24'0 0.0
2015-Mar-17 02:33N 37°48' W 122°24'0 0.0
2015-Mar-17 01:34N 37°48' W 122°24'3 3.4
2015-Mar-17 00:33N 37°49' W 122°20'  

Dump ship's entire track history